Terminal Aerodrome Forecast
Issued by NWS Austin/San Antonio, TX

Home | Current Version | Previous Version | Text Only | Print | Product List | Glossary On
Versions: 1 2 3 4 5 6 7 8 9 10 11 12 13
000
FTUS44 KEWX 282000 AAA
TAFAUS
TAF AMD
KAUS 282001Z 2820/2924 19012G22KT P6SM FEW120 SCT250
     FM290100 18006KT P6SM FEW100 SCT250
     FM290900 21005KT 1SM BR SCT003 SCT100 SCT250
      TEMPO 2911/2915 BKN003
     FM291600 26005KT P6SM SCT100 SCT250
     FM292100 02011KT P6SM SCT090 BKN200=

USA.gov is the U.S. government's official web portal to all federal, state and local government web resources and services.